Time;durP1;ratioP1;P1;durP2;ratioP2;P2;SDS_P1;SDS_P2;PMS_P1;PMS_P2;Temp;Humidity;BMP_temperature;BMP_pressure;BME280_temperature;BME280_humidity;BME280_pressure;Samples;Min_cycle;Max_cycle;Signal;HPM_P1;HPM_P2
2021/09/30 00:00:09;;;;;;;0.80;0.80;;;12.40;99.90;;;;;;5005343;28;20288;-79
2021/09/30 00:02:37;;;;;;;1.15;0.90;;;12.40;99.90;;;;;;5004033;28;20201;-78
2021/09/30 00:05:04;;;;;;;0.93;0.80;;;12.50;99.90;;;;;;5002438;28;20315;-79
2021/09/30 00:07:31;;;;;;;1.13;0.90;;;12.50;99.90;;;;;;4999528;28;20208;-77
2021/09/30 00:09:58;;;;;;;0.80;0.80;;;12.40;99.90;;;;;;4995600;28;20300;-76
2021/09/30 00:12:29;;;;;;;0.75;0.75;;;12.40;99.90;;;;;;4995943;28;20292;-79
2021/09/30 00:14:59;;;;;;;2.58;1.20;;;12.40;99.90;;;;;;4997762;28;20264;-79
2021/09/30 00:34:21;;;;;;;1.08;0.95;;;12.20;99.90;;;;;;4995203;28;20591;-75
2021/09/30 00:39:47;;;;;;;1.10;1.00;;;12.20;99.90;;;;;;4994856;28;20205;-74
2021/09/30 00:42:23;;;;;;;1.35;1.25;;;12.10;99.90;;;;;;4994765;28;20201;-74
2021/09/30 00:47:44;;;;;;;1.20;1.10;;;12.10;99.90;;;;;;4994714;28;20228;-73
2021/09/30 00:50:22;;;;;;;1.55;1.23;;;12.10;99.90;;;;;;4994911;28;20587;-75
2021/09/30 00:53:03;;;;;;;1.10;1.05;;;12.10;99.90;;;;;;4994615;28;20256;-76
2021/09/30 01:46:25;;;;;;;1.15;0.90;;;11.90;99.90;;;;;;4994128;28;20291;-76
2021/09/30 02:19:53;;;;;;;1.23;1.13;;;11.50;99.90;;;;;;4994700;28;20208;-75
2021/09/30 02:22:36;;;;;;;1.92;1.08;;;11.60;99.90;;;;;;4993767;28;20638;-75
2021/09/30 02:25:19;;;;;;;0.90;0.90;;;11.60;99.90;;;;;;4993287;28;20707;-75
2021/09/30 02:30:54;;;;;;;1.63;1.10;;;11.50;99.90;;;;;;4989438;28;20205;-75
2021/09/30 02:58:32;;;;;;;3.00;2.20;;;11.30;99.90;;;;;;5000593;28;20205;-79
2021/09/30 03:01:03;;;;;;;2.28;1.40;;;11.30;99.90;;;;;;5000097;28;20209;-79
2021/09/30 03:03:33;;;;;;;1.83;1.70;;;11.30;99.90;;;;;;5000425;28;20244;-78
2021/09/30 03:06:02;;;;;;;2.15;1.10;;;11.30;99.90;;;;;;5000038;28;20308;-79
2021/09/30 03:08:31;;;;;;;1.00;1.00;;;11.20;99.90;;;;;;5000197;28;20549;-78
2021/09/30 03:11:00;;;;;;;1.45;1.35;;;11.30;99.90;;;;;;5000108;28;20696;-77
2021/09/30 03:13:30;;;;;;;0.90;0.90;;;11.20;99.90;;;;;;4999771;28;20664;-78
2021/09/30 03:16:00;;;;;;;5.40;1.10;;;11.20;99.90;;;;;;4999643;28;20272;-78
2021/09/30 03:18:30;;;;;;;2.85;1.10;;;11.20;99.90;;;;;;5000152;28;20292;-78
2021/09/30 03:23:45;;;;;;;1.23;1.10;;;11.10;99.90;;;;;;4999759;28;20571;-78
2021/09/30 03:26:14;;;;;;;0.95;0.95;;;11.10;99.90;;;;;;4999701;28;20662;-78
2021/09/30 03:28:42;;;;;;;1.27;1.17;;;11.10;99.90;;;;;;4999196;28;20288;-78
2021/09/30 03:31:11;;;;;;;3.63;1.20;;;11.10;99.90;;;;;;4998984;28;20210;-79
2021/09/30 03:33:38;;;;;;;1.13;1.02;;;11.10;99.90;;;;;;4999118;28;20706;-78
2021/09/30 03:36:05;;;;;;;1.17;1.08;;;11.10;99.90;;;;;;4999924;28;20257;-78
2021/09/30 03:38:32;;;;;;;1.48;1.38;;;11.10;99.90;;;;;;4999173;28;20288;-78
2021/09/30 03:41:00;;;;;;;1.20;1.10;;;11.10;99.90;;;;;;4999657;28;20233;-78
2021/09/30 03:43:27;;;;;;;0.77;0.77;;;11.10;99.90;;;;;;4999419;28;20612;-78
2021/09/30 03:45:55;;;;;;;1.60;1.50;;;11.10;99.90;;;;;;4999092;28;20324;-79
2021/09/30 03:48:22;;;;;;;1.33;1.10;;;11.10;99.90;;;;;;4999831;28;20205;-79
2021/09/30 03:50:54;;;;;;;5.97;3.38;;;11.20;99.90;;;;;;4999287;28;20272;-79
2021/09/30 03:53:25;;;;;;;1.40;1.30;;;11.20;99.90;;;;;;4999693;28;20205;-79
2021/09/30 03:56:07;;;;;;;1.13;1.00;;;11.20;99.90;;;;;;4999187;28;20585;-78
2021/09/30 04:01:20;;;;;;;1.02;1.00;;;11.10;99.90;;;;;;4998695;28;20204;-78
2021/09/30 04:03:46;;;;;;;1.77;1.15;;;11.10;99.90;;;;;;4998967;28;20604;-79
2021/09/30 04:06:13;;;;;;;2.03;0.95;;;11.10;99.90;;;;;;4998867;28;20225;-79
2021/09/30 04:08:41;;;;;;;1.00;1.00;;;11.10;99.90;;;;;;4999148;28;20248;-78
2021/09/30 04:11:08;;;;;;;1.50;1.10;;;10.90;99.90;;;;;;4998913;28;20211;-78
2021/09/30 04:13:36;;;;;;;1.30;1.20;;;10.80;99.90;;;;;;4998877;28;20201;-78
2021/09/30 04:16:04;;;;;;;1.50;1.00;;;10.70;99.90;;;;;;4998939;28;20226;-78
2021/09/30 04:18:31;;;;;;;1.80;1.10;;;10.70;99.90;;;;;;4998325;28;20690;-78
2021/09/30 04:20:58;;;;;;;1.38;1.17;;;10.50;99.90;;;;;;4997744;28;20668;-79
2021/09/30 04:23:25;;;;;;;0.93;0.82;;;10.50;99.90;;;;;;4998141;28;20244;-78
2021/09/30 04:25:52;;;;;;;1.42;1.33;;;10.40;99.90;;;;;;4998034;28;20235;-78
2021/09/30 04:28:19;;;;;;;1.70;1.42;;;10.50;99.90;;;;;;4997277;28;20292;-78
2021/09/30 04:30:47;;;;;;;1.13;1.10;;;10.40;99.90;;;;;;4997286;28;20220;-78
2021/09/30 04:33:14;;;;;;;2.60;1.35;;;10.50;99.90;;;;;;4996922;28;20209;-78
2021/09/30 04:35:41;;;;;;;1.33;1.30;;;10.50;99.90;;;;;;4996940;28;20332;-78
2021/09/30 04:38:09;;;;;;;3.85;1.20;;;10.40;99.90;;;;;;4996653;28;20584;-78
2021/09/30 04:40:36;;;;;;;1.58;1.15;;;10.40;99.90;;;;;;4996939;28;20210;-78
2021/09/30 04:43:03;;;;;;;1.25;1.17;;;10.40;99.90;;;;;;4996379;28;20679;-78
2021/09/30 04:45:30;;;;;;;1.38;1.27;;;10.40;99.90;;;;;;4996385;28;20231;-78
2021/09/30 04:47:59;;;;;;;1.52;1.20;;;10.30;99.90;;;;;;4996440;28;20305;-78
2021/09/30 04:50:26;;;;;;;1.40;1.30;;;10.30;99.90;;;;;;4996721;28;20682;-78
2021/09/30 04:52:58;;;;;;;0.82;0.82;;;10.20;99.90;;;;;;4996335;28;20216;-78
2021/09/30 04:55:24;;;;;;;1.92;1.23;;;10.10;99.90;;;;;;4996342;28;20225;-78
2021/09/30 04:57:51;;;;;;;2.65;1.60;;;10.00;99.90;;;;;;4996504;28;20229;-78
2021/09/30 05:00:18;;;;;;;4.32;1.40;;;9.80;99.90;;;;;;4996371;28;20329;-78
2021/09/30 05:02:47;;;;;;;1.77;1.48;;;9.80;99.90;;;;;;4995941;28;20205;-78
2021/09/30 05:05:16;;;;;;;1.52;1.30;;;9.70;99.90;;;;;;4996213;28;20336;-78
2021/09/30 05:07:42;;;;;;;1.92;1.60;;;9.70;99.90;;;;;;4996116;28;20201;-78
2021/09/30 05:10:12;;;;;;;1.50;1.40;;;9.80;99.90;;;;;;4996120;28;20202;-78
2021/09/30 05:12:41;;;;;;;2.30;2.10;;;9.90;99.90;;;;;;4996161;28;20202;-78
2021/09/30 05:15:09;;;;;;;1.45;1.35;;;10.00;99.90;;;;;;4995976;28;20225;-78
2021/09/30 05:17:36;;;;;;;2.13;1.50;;;10.00;99.90;;;;;;4995599;28;20232;-78
2021/09/30 05:20:03;;;;;;;1.40;1.30;;;10.00;99.90;;;;;;4996027;28;20252;-78
2021/09/30 05:22:31;;;;;;;1.80;1.70;;;10.00;99.90;;;;;;4996544;28;20208;-78
2021/09/30 05:24:58;;;;;;;1.73;1.48;;;9.90;99.90;;;;;;4997348;28;20233;-78
2021/09/30 05:27:24;;;;;;;2.20;1.55;;;10.00;99.90;;;;;;4996959;28;20292;-78
2021/09/30 05:29:51;;;;;;;3.20;1.75;;;9.90;99.90;;;;;;4997381;28;20240;-78
2021/09/30 05:32:18;;;;;;;1.60;1.50;;;9.90;99.90;;;;;;4996683;28;20224;-78
2021/09/30 05:34:45;;;;;;;1.98;1.88;;;9.80;99.90;;;;;;4996937;28;20316;-78
2021/09/30 05:37:12;;;;;;;1.80;1.70;;;9.80;99.90;;;;;;4997277;28;20221;-78
2021/09/30 05:39:40;;;;;;;1.75;1.65;;;9.90;99.90;;;;;;4996926;28;20296;-78
2021/09/30 05:42:07;;;;;;;1.80;1.65;;;9.90;99.90;;;;;;4996602;28;20202;-78
2021/09/30 05:44:34;;;;;;;2.40;2.17;;;10.00;99.90;;;;;;4996946;28;20633;-78
2021/09/30 05:47:01;;;;;;;2.15;1.48;;;9.90;99.90;;;;;;4996875;28;20208;-78
2021/09/30 05:49:28;;;;;;;1.70;1.60;;;9.80;99.90;;;;;;4996834;28;20676;-78
2021/09/30 05:51:55;;;;;;;3.03;1.40;;;9.90;99.90;;;;;;4996273;28;20698;-78
2021/09/30 05:54:22;;;;;;;1.70;1.45;;;9.90;99.90;;;;;;4996470;28;20295;-78
2021/09/30 05:56:50;;;;;;;1.98;1.20;;;9.90;99.90;;;;;;4996487;28;20634;-78
2021/09/30 05:59:20;;;;;;;1.48;1.30;;;9.80;99.90;;;;;;4996106;28;20202;-78
2021/09/30 06:10:33;;;;;;;1.98;1.75;;;9.90;99.90;;;;;;4995406;28;20208;-78
2021/09/30 06:13:05;;;;;;;2.45;1.90;;;9.90;99.90;;;;;;4995250;28;20202;-78
2021/09/30 06:15:34;;;;;;;1.85;1.75;;;9.80;99.90;;;;;;4995063;28;20229;-78
2021/09/30 06:18:02;;;;;;;3.47;1.60;;;9.80;99.90;;;;;;4995160;28;20263;-78
2021/09/30 06:20:29;;;;;;;1.88;1.60;;;9.70;99.90;;;;;;4995333;28;20205;-78
2021/09/30 06:22:56;;;;;;;3.13;2.28;;;9.70;99.90;;;;;;4995022;28;20231;-78
2021/09/30 06:25:23;;;;;;;1.90;1.80;;;9.70;99.90;;;;;;4994550;28;20312;-78
2021/09/30 06:27:50;;;;;;;2.10;1.90;;;9.80;99.90;;;;;;4994494;28;20201;-78
2021/09/30 06:30:18;;;;;;;1.70;1.50;;;9.70;99.90;;;;;;4994620;28;20292;-78
2021/09/30 06:32:45;;;;;;;2.58;1.92;;;9.80;99.90;;;;;;4994662;28;20664;-78
2021/09/30 06:35:12;;;;;;;3.33;2.17;;;9.80;99.90;;;;;;4995128;28;20222;-78
2021/09/30 06:37:39;;;;;;;2.00;1.80;;;9.80;99.90;;;;;;4994668;28;20229;-78
2021/09/30 06:40:07;;;;;;;1.75;1.63;;;9.90;99.90;;;;;;4994968;28;20288;-78
2021/09/30 06:42:34;;;;;;;1.45;1.35;;;9.90;99.90;;;;;;4994677;28;20217;-78
2021/09/30 06:45:02;;;;;;;1.70;1.40;;;10.00;99.90;;;;;;4994829;28;20587;-78
2021/09/30 06:47:36;;;;;;;1.40;1.30;;;10.10;99.90;;;;;;4994797;28;20660;-78
2021/09/30 06:50:04;;;;;;;1.58;1.48;;;10.20;99.90;;;;;;4996927;28;20729;-78
2021/09/30 06:52:31;;;;;;;2.42;1.40;;;10.20;99.90;;;;;;4997218;28;20210;-78
2021/09/30 06:54:58;;;;;;;2.33;1.48;;;10.20;99.90;;;;;;4997495;28;20664;-78
2021/09/30 06:57:27;;;;;;;2.15;1.65;;;10.10;99.90;;;;;;4996418;28;20650;-78
2021/09/30 06:59:55;;;;;;;1.67;1.58;;;10.10;99.90;;;;;;4996111;28;20204;-78
2021/09/30 07:02:23;;;;;;;1.52;1.42;;;10.10;99.90;;;;;;4994805;28;20264;-78
2021/09/30 07:04:51;;;;;;;1.92;1.70;;;10.00;99.90;;;;;;4996888;28;20231;-78
2021/09/30 07:07:18;;;;;;;1.77;1.67;;;10.20;99.90;;;;;;4997292;28;20205;-78
2021/09/30 07:09:45;;;;;;;1.48;1.30;;;10.30;99.90;;;;;;4995981;28;20213;-78
2021/09/30 07:12:13;;;;;;;2.95;1.85;;;10.40;99.90;;;;;;4994988;28;20264;-78
2021/09/30 07:14:40;;;;;;;2.28;1.60;;;10.50;99.90;;;;;;4995381;28;20311;-78
2021/09/30 07:17:07;;;;;;;5.57;1.80;;;10.60;99.90;;;;;;4995508;28;20316;-78
2021/09/30 07:19:36;;;;;;;1.60;1.50;;;10.80;99.90;;;;;;4995601;28;20296;-78
2021/09/30 07:22:06;;;;;;;2.20;1.90;;;10.70;99.90;;;;;;4995248;28;20212;-78
2021/09/30 07:24:33;;;;;;;2.15;1.52;;;10.70;99.90;;;;;;4995656;28;20671;-78
2021/09/30 07:27:01;;;;;;;2.78;1.25;;;10.80;99.90;;;;;;4995038;28;20309;-78
2021/09/30 07:29:27;;;;;;;1.02;1.00;;;10.80;99.90;;;;;;4995042;28;20212;-78
2021/09/30 07:31:54;;;;;;;2.50;1.42;;;11.00;99.90;;;;;;4995404;28;20320;-79
2021/09/30 07:34:21;;;;;;;1.02;1.02;;;11.00;99.90;;;;;;4995396;28;20273;-78
2021/09/30 07:36:48;;;;;;;2.53;1.40;;;11.10;99.90;;;;;;4994895;28;20840;-78
2021/09/30 07:39:17;;;;;;;4.45;1.20;;;11.20;99.90;;;;;;4995860;28;20730;-78
2021/09/30 07:41:45;;;;;;;1.92;1.20;;;11.30;99.90;;;;;;4997834;28;20656;-78
2021/09/30 07:44:12;;;;;;;2.00;0.98;;;11.40;99.90;;;;;;4998344;28;20206;-79
2021/09/30 07:46:42;;;;;;;1.77;1.30;;;11.50;99.90;;;;;;4998757;28;20586;-78
2021/09/30 07:49:09;;;;;;;1.20;1.10;;;11.50;99.90;;;;;;4998581;28;20654;-78
2021/09/30 07:51:37;;;;;;;1.50;0.70;;;11.50;99.90;;;;;;4997901;28;20201;-78
2021/09/30 07:54:06;;;;;;;1.17;1.00;;;11.40;99.90;;;;;;4980982;28;20211;-78
2021/09/30 07:56:34;;;;;;;1.05;1.00;;;11.40;99.90;;;;;;4983435;28;20230;-73
2021/09/30 07:59:01;;;;;;;2.42;1.00;;;11.50;99.90;;;;;;4976218;28;20708;-73
2021/09/30 08:01:29;;;;;;;0.88;0.88;;;11.50;99.90;;;;;;4976151;28;20313;-74
2021/09/30 08:03:57;;;;;;;1.30;1.20;;;11.70;99.90;;;;;;4976239;28;20313;-74
2021/09/30 08:06:24;;;;;;;0.82;0.60;;;11.80;99.90;;;;;;4976067;28;20238;-74
2021/09/30 08:08:51;;;;;;;0.70;0.70;;;11.90;99.90;;;;;;4975806;28;20209;-74
2021/09/30 08:11:18;;;;;;;1.02;0.88;;;12.00;99.90;;;;;;4975803;28;20665;-74
2021/09/30 08:13:47;;;;;;;1.60;0.82;;;12.00;99.90;;;;;;4976031;28;20300;-75
2021/09/30 08:16:14;;;;;;;0.77;0.73;;;12.10;99.90;;;;;;4975855;28;20233;-73
2021/09/30 08:18:41;;;;;;;0.80;0.80;;;12.10;99.90;;;;;;4975675;28;20270;-74
2021/09/30 08:21:12;;;;;;;0.80;0.77;;;12.20;99.90;;;;;;4975761;28;20202;-74
2021/09/30 08:23:39;;;;;;;0.82;0.70;;;12.20;99.90;;;;;;4975898;28;20248;-74
2021/09/30 08:26:06;;;;;;;1.00;0.90;;;12.40;99.90;;;;;;4975906;28;20222;-72
2021/09/30 08:28:34;;;;;;;0.80;0.70;;;12.50;99.90;;;;;;4976955;28;20293;-72
2021/09/30 08:31:03;;;;;;;2.25;0.80;;;12.60;99.90;;;;;;4976749;28;20601;-72
2021/09/30 08:33:30;;;;;;;1.15;1.05;;;12.70;99.90;;;;;;4976605;28;20218;-71
2021/09/30 08:35:57;;;;;;;1.85;0.75;;;12.70;99.90;;;;;;4976553;28;20230;-71
2021/09/30 08:38:24;;;;;;;0.73;0.73;;;12.70;99.90;;;;;;4976609;28;20222;-71
2021/09/30 08:40:51;;;;;;;0.63;0.63;;;12.80;99.90;;;;;;4976798;28;20207;-71
2021/09/30 08:43:19;;;;;;;0.75;0.75;;;13.00;99.90;;;;;;4976585;28;20292;-71
2021/09/30 08:45:46;;;;;;;1.15;0.65;;;13.00;99.90;;;;;;4976392;28;20233;-71
2021/09/30 08:48:14;;;;;;;1.50;0.70;;;13.00;99.90;;;;;;4976638;28;20206;-71
2021/09/30 08:50:41;;;;;;;1.35;0.88;;;13.10;99.90;;;;;;4975432;28;20297;-71
2021/09/30 08:53:09;;;;;;;0.80;0.73;;;13.20;99.90;;;;;;4976399;28;20210;-71
2021/09/30 08:55:36;;;;;;;0.70;0.70;;;13.40;99.90;;;;;;4976456;28;20234;-71
2021/09/30 08:58:03;;;;;;;2.15;0.52;;;13.60;99.90;;;;;;4976478;28;20317;-71
2021/09/30 09:00:31;;;;;;;0.80;0.60;;;13.80;99.90;;;;;;4976346;28;20209;-71
2021/09/30 09:02:59;;;;;;;0.60;0.50;;;14.00;99.90;;;;;;4976179;28;20302;-71
2021/09/30 09:05:27;;;;;;;0.55;0.55;;;14.10;99.50;;;;;;4976363;28;20320;-71
2021/09/30 09:07:57;;;;;;;2.15;1.45;;;14.20;99.90;;;;;;4976252;28;20673;-71
2021/09/30 09:10:26;;;;;;;3.38;1.15;;;14.30;98.90;;;;;;4976223;28;20202;-71
2021/09/30 09:13:07;;;;;;;1.90;0.75;;;14.30;98.80;;;;;;4975708;28;20306;-71
2021/09/30 09:15:39;;;;;;;1.25;0.90;;;14.50;99.70;;;;;;4976161;28;20259;-72
2021/09/30 09:18:22;;;;;;;1.48;1.35;;;14.60;99.90;;;;;;4976008;28;20243;-71
2021/09/30 09:21:04;;;;;;;2.15;1.48;;;14.70;99.20;;;;;;4975993;28;20245;-71
2021/09/30 09:23:31;;;;;;;0.93;0.65;;;14.80;99.00;;;;;;4976019;28;20232;-71
2021/09/30 09:26:11;;;;;;;0.82;0.40;;;15.00;96.60;;;;;;4975968;28;20582;-71
2021/09/30 09:28:39;;;;;;;1.02;0.52;;;15.10;95.50;;;;;;4976445;28;20204;-71
2021/09/30 09:31:06;;;;;;;9.40;5.75;;;15.20;95.10;;;;;;4975651;28;20212;-71
2021/09/30 09:33:36;;;;;;;20.80;14.90;;;15.20;94.10;;;;;;4975317;28;20337;-71
2021/09/30 09:36:07;;;;;;;2.38;1.73;;;15.30;94.60;;;;;;4975756;28;20317;-71
2021/09/30 09:38:48;;;;;;;0.68;0.60;;;15.30;93.60;;;;;;4975673;28;20224;-71
2021/09/30 09:41:23;;;;;;;0.50;0.45;;;15.20;93.10;;;;;;4975377;28;20216;-72
2021/09/30 09:43:51;;;;;;;0.80;0.80;;;15.20;93.90;;;;;;4975598;28;20219;-71
2021/09/30 09:46:21;;;;;;;0.95;0.60;;;15.20;93.40;;;;;;4975401;28;20228;-71
2021/09/30 09:48:57;;;;;;;0.98;0.60;;;15.20;93.70;;;;;;4976157;28;20296;-71
2021/09/30 09:51:26;;;;;;;1.52;0.70;;;15.20;91.30;;;;;;4975301;28;20299;-71
2021/09/30 09:53:57;;;;;;;1.35;0.88;;;15.20;91.10;;;;;;4975460;28;20215;-71
2021/09/30 09:56:24;;;;;;;0.93;0.77;;;15.20;91.00;;;;;;4975153;28;20254;-72
2021/09/30 09:58:54;;;;;;;1.05;0.77;;;15.10;90.10;;;;;;4975292;28;20227;-71
2021/09/30 10:01:23;;;;;;;1.13;1.10;;;15.10;91.20;;;;;;4975010;28;20248;-72
2021/09/30 10:03:59;;;;;;;1.17;0.68;;;15.10;91.30;;;;;;4974959;28;20214;-71
2021/09/30 10:06:28;;;;;;;0.80;0.60;;;15.10;90.80;;;;;;4975282;28;20271;-71
2021/09/30 10:08:56;;;;;;;1.50;0.82;;;15.20;91.30;;;;;;4975139;28;20295;-71
2021/09/30 10:11:25;;;;;;;0.50;0.50;;;15.30;90.50;;;;;;4974948;28;20213;-72
2021/09/30 10:13:53;;;;;;;0.85;0.57;;;15.40;90.60;;;;;;4974928;28;20691;-72
2021/09/30 10:16:25;;;;;;;0.65;0.65;;;15.40;89.60;;;;;;4974892;28;20320;-71
2021/09/30 10:18:53;;;;;;;0.50;0.50;;;15.50;90.80;;;;;;4974914;28;20224;-71
2021/09/30 10:21:19;;;;;;;1.00;0.73;;;15.50;89.30;;;;;;4974868;28;20306;-71
2021/09/30 10:23:54;;;;;;;0.60;0.60;;;15.70;90.30;;;;;;4974932;28;20216;-71
2021/09/30 10:26:25;;;;;;;1.77;0.60;;;15.70;87.90;;;;;;4975051;28;20237;-71
2021/09/30 10:28:52;;;;;;;0.52;0.45;;;15.80;87.60;;;;;;4974792;28;20211;-71
2021/09/30 10:31:26;;;;;;;1.15;0.60;;;15.70;88.30;;;;;;4974642;28;20209;-71
2021/09/30 10:33:54;;;;;;;0.30;0.30;;;15.60;89.30;;;;;;4974838;28;20223;-71
2021/09/30 10:36:37;;;;;;;0.60;0.60;;;15.60;90.60;;;;;;4974570;28;20238;-72
2021/09/30 10:39:26;;;;;;;0.82;0.60;;;15.60;88.90;;;;;;4974629;28;20227;-71
2021/09/30 10:41:56;;;;;;;0.98;0.60;;;15.50;90.10;;;;;;4974549;28;20215;-72
2021/09/30 10:44:24;;;;;;;0.73;0.65;;;15.30;89.90;;;;;;4974777;28;20642;-72
2021/09/30 10:46:55;;;;;;;0.70;0.60;;;15.30;88.70;;;;;;4974545;28;20213;-71
2021/09/30 10:49:40;;;;;;;1.20;0.70;;;15.30;89.70;;;;;;4974782;28;20294;-71
2021/09/30 10:52:27;;;;;;;0.65;0.60;;;15.40;90.60;;;;;;4974530;28;20271;-71
2021/09/30 10:55:17;;;;;;;1.13;0.73;;;16.30;87.00;;;;;;4974658;28;20261;-71
2021/09/30 10:57:46;;;;;;;0.80;0.80;;;16.80;85.50;;;;;;4974359;28;20212;-72
2021/09/30 11:00:47;;;;;;;0.40;0.40;;;17.30;83.80;;;;;;4974595;28;20233;-72
2021/09/30 11:03:20;;;;;;;1.05;0.50;;;17.30;82.40;;;;;;4974456;28;20209;-72
2021/09/30 11:06:24;;;;;;;0.88;0.55;;;17.20;85.60;;;;;;4974707;28;20226;-72
2021/09/30 11:09:10;;;;;;;0.63;0.50;;;17.10;87.30;;;;;;4974689;28;20202;-72
2021/09/30 11:11:41;;;;;;;1.35;0.70;;;17.00;85.10;;;;;;4974383;28;20209;-72
2021/09/30 11:14:16;;;;;;;0.85;0.65;;;16.80;84.30;;;;;;4975435;28;20213;-72
2021/09/30 11:16:46;;;;;;;0.90;0.60;;;16.50;84.40;;;;;;4978466;28;20221;-71
2021/09/30 11:19:38;;;;;;;1.05;0.88;;;16.80;84.80;;;;;;4978243;28;20226;-72
2021/09/30 11:22:06;;;;;;;0.50;0.50;;;17.60;85.80;;;;;;4978248;28;20218;-72
2021/09/30 11:24:53;;;;;;;0.50;0.43;;;18.50;80.20;;;;;;4978001;28;20676;-72
2021/09/30 11:27:30;;;;;;;3.10;1.73;;;19.80;72.50;;;;;;4978190;28;20436;-72
2021/09/30 11:30:20;;;;;;;0.70;0.70;;;19.80;70.50;;;;;;4978226;28;20455;-72
2021/09/30 11:32:48;;;;;;;0.60;0.60;;;19.70;74.20;;;;;;4977877;28;20554;-72
2021/09/30 11:35:15;;;;;;;0.90;0.53;;;19.60;71.30;;;;;;4978035;28;20896;-71
2021/09/30 11:37:45;;;;;;;1.13;0.60;;;19.30;68.80;;;;;;4978005;28;20799;-71
2021/09/30 11:40:18;;;;;;;1.70;0.67;;;18.90;69.70;;;;;;4977850;28;20844;-72
2021/09/30 11:42:49;;;;;;;0.70;0.60;;;18.80;67.80;;;;;;4977500;28;20456;-72
2021/09/30 11:45:20;;;;;;;1.47;0.70;;;18.80;67.40;;;;;;4977885;28;20232;-72
2021/09/30 11:47:48;;;;;;;1.10;1.00;;;19.10;66.50;;;;;;4977598;28;20454;-72
2021/09/30 11:50:18;;;;;;;0.70;0.70;;;19.70;63.10;;;;;;4977732;28;20804;-72
2021/09/30 11:52:54;;;;;;;0.93;0.53;;;20.00;62.60;;;;;;4977428;28;20540;-72
2021/09/30 11:55:21;;;;;;;0.80;0.60;;;20.20;62.80;;;;;;4977555;28;20556;-72
2021/09/30 11:57:58;;;;;;;1.00;1.00;;;20.50;60.70;;;;;;4977641;28;20459;-72
2021/09/30 12:00:25;;;;;;;0.50;0.50;;;20.70;61.50;;;;;;4977306;28;20838;-72
2021/09/30 12:03:01;;;;;;;1.20;0.70;;;20.70;62.00;;;;;;4977424;28;20455;-72
2021/09/30 12:05:32;;;;;;;0.60;0.50;;;20.40;59.60;;;;;;4977328;28;20476;-72
2021/09/30 12:08:02;;;;;;;2.30;0.67;;;20.50;59.50;;;;;;4977435;28;20430;-72
2021/09/30 12:10:30;;;;;;;0.90;0.53;;;20.60;61.30;;;;;;4978083;28;20440;-72
2021/09/30 12:12:59;;;;;;;1.70;0.67;;;20.30;60.00;;;;;;4977281;28;20450;-72
2021/09/30 12:15:26;;;;;;;0.50;0.50;;;20.10;59.10;;;;;;4977172;28;20519;-72
2021/09/30 12:17:53;;;;;;;0.97;0.50;;;19.90;58.50;;;;;;4977200;28;20455;-72
2021/09/30 12:20:22;;;;;;;0.60;0.60;;;19.40;60.60;;;;;;4977133;28;20812;-72
2021/09/30 12:22:53;;;;;;;0.50;0.50;;;19.40;62.30;;;;;;4976951;28;20850;-72
2021/09/30 12:25:23;;;;;;;2.22;1.25;;;18.80;58.60;;;;;;4977199;28;20975;-72
2021/09/30 12:27:52;;;;;;;1.20;1.10;;;18.60;63.80;;;;;;4977079;28;20661;-72
2021/09/30 12:30:22;;;;;;;1.50;1.40;;;18.40;64.10;;;;;;4977131;28;20393;-72
2021/09/30 12:32:51;;;;;;;0.70;0.68;;;18.20;65.90;;;;;;4976810;28;20218;-72
2021/09/30 12:35:22;;;;;;;0.80;0.80;;;18.20;68.40;;;;;;4977163;28;20226;-72
2021/09/30 12:37:50;;;;;;;1.02;0.40;;;18.20;65.80;;;;;;4977083;28;20235;-72
2021/09/30 12:40:20;;;;;;;0.55;0.50;;;18.10;62.00;;;;;;4976856;28;20263;-72
2021/09/30 12:42:59;;;;;;;0.60;0.50;;;17.90;64.60;;;;;;4976663;28;20216;-72
2021/09/30 12:45:28;;;;;;;0.70;0.70;;;17.90;67.20;;;;;;4976719;28;20229;-72
2021/09/30 12:48:08;;;;;;;0.60;0.55;;;17.90;66.80;;;;;;4977274;28;20209;-72
2021/09/30 12:50:44;;;;;;;0.80;0.60;;;17.90;67.10;;;;;;4976665;28;20202;-72
2021/09/30 12:53:13;;;;;;;1.45;1.35;;;18.00;68.00;;;;;;4976493;28;20572;-72
2021/09/30 12:55:40;;;;;;;0.77;0.70;;;18.00;67.00;;;;;;4976244;28;20333;-72
2021/09/30 12:58:26;;;;;;;1.30;1.20;;;18.00;70.10;;;;;;4976540;28;20210;-72
2021/09/30 13:00:56;;;;;;;0.75;0.57;;;17.90;67.40;;;;;;4976519;28;20233;-72
2021/09/30 13:03:23;;;;;;;1.05;0.88;;;17.90;68.90;;;;;;4976145;28;20213;-72
2021/09/30 13:05:52;;;;;;;0.50;0.50;;;17.80;67.00;;;;;;4976384;28;20265;-72
2021/09/30 13:08:36;;;;;;;0.68;0.60;;;17.80;70.50;;;;;;4976179;28;20257;-72
2021/09/30 13:11:26;;;;;;;0.70;0.70;;;17.80;67.90;;;;;;4975966;28;20680;-71
2021/09/30 13:14:23;;;;;;;0.60;0.60;;;17.70;63.20;;;;;;4976402;28;20296;-72
2021/09/30 13:16:53;;;;;;;1.35;1.13;;;17.60;66.20;;;;;;4975907;28;20293;-72
2021/09/30 13:19:21;;;;;;;0.70;0.70;;;17.60;66.10;;;;;;4976187;28;20252;-72
2021/09/30 13:21:59;;;;;;;0.50;0.50;;;17.60;64.60;;;;;;4975675;28;20209;-72
2021/09/30 13:24:26;;;;;;;0.50;0.50;;;17.40;62.30;;;;;;4975799;28;20206;-72
2021/09/30 13:26:54;;;;;;;0.50;0.50;;;17.30;66.70;;;;;;4976144;28;20212;-72
2021/09/30 13:29:21;;;;;;;0.32;0.32;;;17.40;70.20;;;;;;4976046;28;20205;-72
2021/09/30 13:31:48;;;;;;;1.33;0.90;;;17.40;67.90;;;;;;4975782;28;20205;-72
2021/09/30 13:34:16;;;;;;;0.70;0.70;;;17.50;69.10;;;;;;4975908;28;20201;-72
2021/09/30 13:36:43;;;;;;;2.25;0.65;;;17.70;67.50;;;;;;4974971;28;20296;-72
2021/09/30 13:39:10;;;;;;;2.47;2.28;;;17.80;69.10;;;;;;4975769;28;20212;-72
2021/09/30 13:41:36;;;;;;;1.33;1.08;;;17.90;71.10;;;;;;4975538;28;20296;-72
2021/09/30 13:44:04;;;;;;;1.02;0.70;;;17.90;67.00;;;;;;4975652;28;20210;-72
2021/09/30 13:46:31;;;;;;;0.77;0.50;;;17.90;66.80;;;;;;4975846;28;20233;-72
2021/09/30 13:48:57;;;;;;;0.47;0.47;;;18.00;67.00;;;;;;4975659;28;20201;-72
2021/09/30 13:51:28;;;;;;;0.98;0.60;;;18.10;68.70;;;;;;4975453;28;20570;-71
2021/09/30 13:53:55;;;;;;;1.20;0.70;;;18.20;66.20;;;;;;4975590;28;20736;-72
2021/09/30 13:56:23;;;;;;;0.60;0.60;;;18.10;65.40;;;;;;4975288;28;20236;-72
2021/09/30 13:58:50;;;;;;;0.43;0.43;;;18.10;64.40;;;;;;4975700;28;20210;-72
2021/09/30 14:01:17;;;;;;;1.30;1.13;;;18.20;65.00;;;;;;4974947;28;20722;-72
2021/09/30 14:03:44;;;;;;;1.13;0.50;;;18.20;62.80;;;;;;4975165;28;20669;-72
2021/09/30 14:06:12;;;;;;;1.35;1.00;;;18.10;63.80;;;;;;4975571;28;20748;-72
2021/09/30 14:08:41;;;;;;;1.20;0.80;;;18.20;64.50;;;;;;4975274;28;20242;-72
2021/09/30 14:11:09;;;;;;;1.40;1.30;;;18.00;63.30;;;;;;4975414;28;20231;-73
2021/09/30 14:13:36;;;;;;;0.60;0.50;;;18.00;64.40;;;;;;4975025;28;20222;-72
2021/09/30 14:16:04;;;;;;;0.50;0.50;;;17.90;64.20;;;;;;4975273;28;20222;-72
2021/09/30 14:18:31;;;;;;;1.73;0.90;;;17.90;66.10;;;;;;4975260;28;20206;-72
2021/09/30 14:20:58;;;;;;;2.13;1.05;;;17.80;62.90;;;;;;4975328;28;20226;-71
2021/09/30 14:23:26;;;;;;;1.75;0.70;;;17.80;63.00;;;;;;4975531;28;20554;-72
2021/09/30 14:25:55;;;;;;;1.38;0.85;;;17.80;64.20;;;;;;4975199;28;20233;-72
2021/09/30 14:28:22;;;;;;;0.70;0.60;;;17.70;68.70;;;;;;4975090;28;20237;-72
2021/09/30 14:30:49;;;;;;;0.70;0.70;;;17.80;67.80;;;;;;4975134;28;20297;-73
2021/09/30 14:33:16;;;;;;;0.95;0.60;;;17.70;65.60;;;;;;4974888;28;20218;-73
2021/09/30 14:35:43;;;;;;;2.92;1.90;;;17.70;66.90;;;;;;4975012;28;20232;-73
2021/09/30 14:38:10;;;;;;;0.80;0.80;;;17.70;64.40;;;;;;4975275;28;20212;-72
2021/09/30 14:40:37;;;;;;;2.92;0.50;;;17.70;66.20;;;;;;4974893;28;20226;-73
2021/09/30 14:43:05;;;;;;;1.95;0.88;;;17.60;65.10;;;;;;4974807;28;20627;-72
2021/09/30 14:45:32;;;;;;;1.60;0.70;;;17.60;64.50;;;;;;4975024;28;20312;-73
2021/09/30 14:47:58;;;;;;;0.70;0.60;;;17.60;65.80;;;;;;4975182;28;20206;-72
2021/09/30 14:50:25;;;;;;;0.60;0.60;;;17.70;66.50;;;;;;4978753;28;20296;-71
2021/09/30 14:52:52;;;;;;;1.05;0.63;;;17.70;65.80;;;;;;4978508;28;20208;-72
2021/09/30 14:55:19;;;;;;;2.00;0.55;;;17.70;64.50;;;;;;4978789;28;20226;-72
2021/09/30 14:57:46;;;;;;;1.33;0.88;;;17.70;68.00;;;;;;4978750;28;20623;-72
2021/09/30 15:00:14;;;;;;;0.63;0.63;;;17.80;69.20;;;;;;4979054;28;20222;-72
2021/09/30 15:02:41;;;;;;;1.08;0.55;;;17.70;66.30;;;;;;4978483;28;20202;-72
2021/09/30 15:05:08;;;;;;;3.38;0.68;;;17.60;66.00;;;;;;4978589;28;20229;-72
2021/09/30 15:07:35;;;;;;;0.82;0.65;;;17.70;65.70;;;;;;4978715;28;20209;-72
2021/09/30 15:10:03;;;;;;;0.82;0.60;;;17.70;67.00;;;;;;4978638;28;20293;-72
2021/09/30 15:12:30;;;;;;;0.50;0.50;;;17.70;66.80;;;;;;4978177;28;20212;-72
2021/09/30 15:14:56;;;;;;;1.02;0.73;;;17.60;66.10;;;;;;4978436;28;20226;-72
2021/09/30 15:17:27;;;;;;;0.77;0.50;;;17.40;67.70;;;;;;4978436;28;20203;-72
2021/09/30 15:20:11;;;;;;;0.73;0.32;;;17.40;68.00;;;;;;4978138;28;20222;-72
2021/09/30 15:22:39;;;;;;;1.80;0.55;;;17.40;66.80;;;;;;4978498;28;20628;-72
2021/09/30 15:25:08;;;;;;;3.03;1.30;;;17.50;68.70;;;;;;4978369;28;20701;-72
2021/09/30 15:27:36;;;;;;;1.95;1.10;;;17.50;67.70;;;;;;4978425;28;20216;-72